createdAt,value
2022-11-22T00:01:38.375Z,4.73
2022-11-22T00:04:41.228Z,5.30
2022-11-22T00:07:43.406Z,3.43
2022-11-22T00:10:48.425Z,4.00
2022-11-22T00:13:50.443Z,4.33
2022-11-22T00:16:52.473Z,4.03
2022-11-22T00:19:55.482Z,4.63
2022-11-22T00:22:58.518Z,5.90
2022-11-22T00:26:00.494Z,4.70
2022-11-22T00:29:04.399Z,4.43
2022-11-22T00:32:06.436Z,4.03
2022-11-22T00:35:09.593Z,4.70
2022-11-22T00:38:11.601Z,5.43
2022-11-22T00:41:13.624Z,4.23
2022-11-22T00:44:15.882Z,5.30
2022-11-22T00:47:17.964Z,4.20
2022-11-22T00:50:20.216Z,3.97
2022-11-22T00:53:23.255Z,3.97
2022-11-22T00:56:26.118Z,4.77
2022-11-22T00:59:28.564Z,4.43
2022-11-22T01:02:31.095Z,4.27
2022-11-22T01:05:33.569Z,3.50
2022-11-22T01:08:35.893Z,3.23
2022-11-22T01:11:38.297Z,3.43
2022-11-22T01:14:40.301Z,3.50
2022-11-22T01:17:42.344Z,3.60
2022-11-22T01:20:44.659Z,4.03
2022-11-22T01:23:46.883Z,3.80
2022-11-22T01:26:48.865Z,3.97
2022-11-22T01:29:50.968Z,3.70
2022-11-22T01:32:53.068Z,4.03
2022-11-22T01:35:56.314Z,3.50
2022-11-22T01:38:58.320Z,4.07
2022-11-22T01:42:00.476Z,4.30
2022-11-22T01:45:30.637Z,3.90
2022-11-22T01:48:52.933Z,4.53
2022-11-22T01:52:02.910Z,3.93
2022-11-22T01:55:11.425Z,4.13
2022-11-22T01:58:16.648Z,4.23
2022-11-22T02:01:21.043Z,3.80
2022-11-22T02:07:53.967Z,4.55
2022-11-22T02:10:59.629Z,4.27
2022-11-22T02:14:02.695Z,2.83
2022-11-22T02:17:04.751Z,2.93
2022-11-22T02:20:07.925Z,2.77
2022-11-22T02:23:13.030Z,2.50
2022-11-22T02:26:15.503Z,3.40
2022-11-22T02:29:18.663Z,3.43
2022-11-22T02:32:21.254Z,3.40
2022-11-22T02:35:26.568Z,3.40
2022-11-22T02:38:35.119Z,3.13
2022-11-22T02:41:39.512Z,3.57
2022-11-22T02:44:44.587Z,3.45
2022-11-22T02:47:47.205Z,2.67
2022-11-22T02:50:49.199Z,2.20
2022-11-22T02:53:52.346Z,2.67
2022-11-22T02:56:57.565Z,2.57
2022-11-22T03:03:03.141Z,2.37
2022-11-22T03:06:06.658Z,3.53
2022-11-22T03:09:08.636Z,3.17
2022-11-22T03:12:10.654Z,3.10
2022-11-22T03:15:13.540Z,3.37
2022-11-22T03:18:15.547Z,3.80
2022-11-22T03:21:18.551Z,3.73
2022-11-22T03:24:20.659Z,2.83
2022-11-22T03:27:22.919Z,4.90
2022-11-22T03:30:25.218Z,3.33
2022-11-22T03:33:28.768Z,4.10
2022-11-22T03:36:30.811Z,2.97
2022-11-22T03:39:33.164Z,3.70
2022-11-22T03:42:35.190Z,2.50
2022-11-22T03:45:37.177Z,3.17
2022-11-22T03:48:39.202Z,3.10
2022-11-22T03:51:41.258Z,3.23
2022-11-22T03:54:43.253Z,3.33
2022-11-22T03:57:45.277Z,2.57
2022-11-22T04:00:47.342Z,3.03
2022-11-22T04:03:49.497Z,3.27
2022-11-22T04:06:51.657Z,2.37
2022-11-22T04:09:53.773Z,3.27
2022-11-22T04:12:59.408Z,3.47
2022-11-22T04:16:01.397Z,3.90
2022-11-22T04:19:03.407Z,3.80
2022-11-22T04:22:05.399Z,4.13
2022-11-22T04:25:14.063Z,2.57
2022-11-22T04:28:18.157Z,3.67
2022-11-22T04:31:38.530Z,2.70
2022-11-22T04:34:40.639Z,2.83
2022-11-22T04:37:52.158Z,2.80
2022-11-22T04:40:55.100Z,4.00
2022-11-22T04:44:15.780Z,2.60
2022-11-22T04:47:38.940Z,2.23
2022-11-22T04:51:00.707Z,2.83
2022-11-22T04:54:02.768Z,2.50
2022-11-22T04:57:04.774Z,2.30
2022-11-22T05:00:07.410Z,2.97
2022-11-22T05:03:09.931Z,2.60
2022-11-22T05:06:14.647Z,2.47
2022-11-22T05:12:18.849Z,3.03
2022-11-22T05:15:30.539Z,3.87
2022-11-22T05:18:34.781Z,2.17
2022-11-22T05:21:38.536Z,2.83
2022-11-22T05:24:40.650Z,2.60
2022-11-22T05:27:42.699Z,3.93
2022-11-22T05:30:44.729Z,3.00
2022-11-22T05:33:46.672Z,4.17
2022-11-22T05:36:48.795Z,3.43
2022-11-22T05:39:50.970Z,3.93
2022-11-22T05:42:53.937Z,5.00
2022-11-22T05:45:55.985Z,3.13
2022-11-22T05:48:58.684Z,4.07
2022-11-22T05:52:03.986Z,4.33
2022-11-22T05:55:06.523Z,4.53
2022-11-22T05:58:08.686Z,3.93
2022-11-22T06:01:16.989Z,4.83
2022-11-22T06:04:19.156Z,4.17
2022-11-22T06:07:21.116Z,3.50
2022-11-22T06:10:24.319Z,4.50
2022-11-22T06:13:26.415Z,4.23
2022-11-22T06:16:28.701Z,4.60
2022-11-22T06:19:32.161Z,4.17
2022-11-22T06:22:34.328Z,5.13
2022-11-22T06:25:36.346Z,6.10
2022-11-22T06:28:39.974Z,5.83
2022-11-22T06:31:42.029Z,4.10
2022-11-22T06:34:44.671Z,5.67
2022-11-22T06:37:46.698Z,3.83
2022-11-22T06:40:48.634Z,4.43
2022-11-22T06:43:52.360Z,4.07
2022-11-22T06:46:54.376Z,6.03
2022-11-22T06:49:56.442Z,5.30
2022-11-22T06:52:58.409Z,4.67
2022-11-22T06:56:06.632Z,4.83
2022-11-22T06:59:09.402Z,4.17
2022-11-22T07:02:12.530Z,4.87
2022-11-22T07:05:29.854Z,4.47
2022-11-22T07:08:32.220Z,4.33
2022-11-22T07:11:34.923Z,5.77
2022-11-22T07:14:37.523Z,4.90
2022-11-22T07:17:41.121Z,3.87
2022-11-22T07:20:43.129Z,6.97
2022-11-22T07:23:47.108Z,4.53
2022-11-22T07:26:49.156Z,5.63
2022-11-22T07:29:51.227Z,5.57
2022-11-22T07:32:53.287Z,4.47
2022-11-22T07:35:55.716Z,6.23
2022-11-22T07:38:58.060Z,5.87
2022-11-22T07:42:00.100Z,11.30
2022-11-22T07:45:02.273Z,8.17
2022-11-22T07:48:06.678Z,6.20
2022-11-22T07:51:09.085Z,8.10
2022-11-22T07:54:14.264Z,7.67
2022-11-22T07:57:16.305Z,6.03
2022-11-22T08:00:19.314Z,5.70
2022-11-22T08:03:27.058Z,5.83
2022-11-22T08:06:30.780Z,4.80
2022-11-22T08:09:32.907Z,6.53
2022-11-22T08:12:34.923Z,4.53
2022-11-22T08:15:36.972Z,5.90
2022-11-22T08:18:40.419Z,6.33
2022-11-22T08:21:42.439Z,4.47
2022-11-22T08:24:45.712Z,5.67
2022-11-22T08:27:47.732Z,5.20
2022-11-22T08:30:49.739Z,5.43
2022-11-22T08:33:54.241Z,6.30
2022-11-22T08:37:05.249Z,8.05
2022-11-22T08:40:11.479Z,4.47
2022-11-22T08:43:13.641Z,6.73
2022-11-22T08:46:15.693Z,6.53
2022-11-22T08:49:17.661Z,6.03
2022-11-22T08:52:19.795Z,6.40
2022-11-22T08:55:21.999Z,5.53
2022-11-22T08:58:24.076Z,5.88
2022-11-22T09:01:26.065Z,6.07
2022-11-22T09:04:28.379Z,5.00
2022-11-22T09:10:52.477Z,5.90
2022-11-22T09:13:55.738Z,5.18
2022-11-22T09:16:58.414Z,9.85
2022-11-22T09:20:05.136Z,9.70
2022-11-22T09:23:07.232Z,8.82
2022-11-22T09:26:18.456Z,6.88
2022-11-22T09:29:21.639Z,5.50
2022-11-22T09:32:23.649Z,9.15
2022-11-22T09:35:25.735Z,7.57
2022-11-22T09:38:28.776Z,8.02
2022-11-22T09:41:42.766Z,8.52
2022-11-22T09:45:20.259Z,8.18
2022-11-22T09:48:38.777Z,7.70
2022-11-22T09:51:51.044Z,7.43
2022-11-22T09:55:11.392Z,6.93
2022-11-22T09:58:32.105Z,6.45
2022-11-22T10:01:34.259Z,7.22
2022-11-22T10:04:40.999Z,8.63
2022-11-22T10:07:51.170Z,7.38
2022-11-22T10:10:56.537Z,7.22
2022-11-22T10:14:04.873Z,7.72
2022-11-22T10:17:40.192Z,7.28
2022-11-22T10:20:48.673Z,9.00
2022-11-22T10:23:51.081Z,9.52
2022-11-22T10:26:54.770Z,8.55
2022-11-22T10:30:11.943Z,7.78
2022-11-22T10:33:22.295Z,10.40
2022-11-22T10:36:37.339Z,7.93
2022-11-22T10:39:54.443Z,8.35
2022-11-22T10:43:17.802Z,9.30
2022-11-22T10:46:30.112Z,8.50
2022-11-22T10:50:13.368Z,9.80
2022-11-22T10:53:28.564Z,7.60
2022-11-22T10:56:51.771Z,9.15
2022-11-22T11:00:06.297Z,9.27
2022-11-22T11:03:28.785Z,8.63
2022-11-22T11:07:10.343Z,8.20
2022-11-22T11:10:11.217Z,8.85
2022-11-22T11:13:23.847Z,10.48
2022-11-22T11:16:31.078Z,9.35
2022-11-22T11:19:38.961Z,7.85
2022-11-22T11:26:26.839Z,9.50
2022-11-22T11:29:45.283Z,9.98
2022-11-22T11:32:56.357Z,8.77
2022-11-22T11:36:10.426Z,9.60
2022-11-22T11:39:23.918Z,9.27
2022-11-22T11:42:31.425Z,10.95
2022-11-22T11:45:33.553Z,7.90
2022-11-22T11:48:37.942Z,10.38
2022-11-22T11:51:44.179Z,9.00
2022-11-22T11:54:48.328Z,10.27
2022-11-22T11:57:53.024Z,7.57
2022-11-22T12:00:55.213Z,10.75
2022-11-22T12:04:06.380Z,8.05
2022-11-22T12:07:29.782Z,9.20
2022-11-22T12:10:57.741Z,9.80
2022-11-22T12:14:19.420Z,9.75
2022-11-22T12:17:27.735Z,12.23
2022-11-22T12:21:00.839Z,11.60
2022-11-22T12:24:41.395Z,10.73
2022-11-22T12:27:33.563Z,9.23
2022-11-22T12:30:37.776Z,9.73
2022-11-22T12:33:45.948Z,10.48
2022-11-22T12:36:53.322Z,11.00
2022-11-22T12:39:59.021Z,9.45
2022-11-22T12:43:38.571Z,8.13
2022-11-22T12:46:50.691Z,11.25
2022-11-22T12:49:58.331Z,12.10
2022-11-22T12:53:32.832Z,10.57
2022-11-22T12:56:52.013Z,9.97
2022-11-22T13:00:06.576Z,10.13
2022-11-22T13:03:22.770Z,7.38
2022-11-22T13:06:34.494Z,8.82
2022-11-22T13:09:42.846Z,9.80
2022-11-22T13:12:46.092Z,10.38
2022-11-22T13:15:49.713Z,8.90
2022-11-22T13:19:05.992Z,11.57
2022-11-22T13:22:16.976Z,9.70
2022-11-22T13:25:57.246Z,7.95
2022-11-22T13:29:02.414Z,8.73
2022-11-22T13:32:04.442Z,7.43
2022-11-22T13:35:22.137Z,9.50
2022-11-22T13:38:25.046Z,7.72
2022-11-22T13:41:33.148Z,7.90
2022-11-22T13:44:39.543Z,8.07
2022-11-22T13:47:43.182Z,7.18
2022-11-22T13:50:51.122Z,7.57
2022-11-22T13:54:39.245Z,6.68
2022-11-22T13:57:42.415Z,7.13
2022-11-22T14:00:44.595Z,7.75
2022-11-22T14:03:46.681Z,8.77
2022-11-22T14:07:09.749Z,9.88
2022-11-22T14:10:32.382Z,9.93
2022-11-22T14:13:52.518Z,11.80
2022-11-22T14:16:54.526Z,9.45
2022-11-22T14:20:04.352Z,10.63
2022-11-22T14:23:24.319Z,8.40
2022-11-22T14:26:37.803Z,10.65
2022-11-22T14:30:01.603Z,8.45
2022-11-22T14:33:06.609Z,13.68
2022-11-22T14:36:09.646Z,8.90
2022-11-22T14:39:47.435Z,11.45
2022-11-22T14:42:53.023Z,7.82
2022-11-22T14:46:51.839Z,9.82
2022-11-22T14:49:53.174Z,9.80
2022-11-22T14:53:19.276Z,6.00
2022-11-22T14:56:35.366Z,9.55
2022-11-22T14:59:58.280Z,10.73
2022-11-22T15:03:22.152Z,8.68
2022-11-22T15:09:22.730Z,9.45
2022-11-22T15:10:24.014Z,8.40
2022-11-22T15:14:05.600Z,7.25
2022-11-22T15:58:48.865Z,8.40
2022-11-22T16:01:52.506Z,10.65
2022-11-22T16:06:10.354Z,8.50
2022-11-22T16:08:32.875Z,6.45
2022-11-22T16:11:41.071Z,8.40
2022-11-22T16:14:49.387Z,8.48
2022-11-22T16:18:07.729Z,10.50
2022-11-22T16:21:15.616Z,7.72
2022-11-22T16:24:18.865Z,8.70
2022-11-22T16:27:21.324Z,8.85
2022-11-22T16:30:26.143Z,7.93
2022-11-22T16:33:28.574Z,7.30
2022-11-22T16:36:32.287Z,9.07
2022-11-22T16:39:34.531Z,9.77
2022-11-22T16:42:41.447Z,13.80
2022-11-22T16:45:43.749Z,9.45
2022-11-22T16:48:45.815Z,8.65
2022-11-22T16:51:50.267Z,8.32
2022-11-22T16:57:54.890Z,9.00
2022-11-22T17:00:57.065Z,8.18
2022-11-22T17:04:00.991Z,7.05
2022-11-22T17:07:03.278Z,8.93
2022-11-22T17:10:05.777Z,7.72
2022-11-22T17:13:14.621Z,7.78
2022-11-22T17:16:18.049Z,8.82
2022-11-22T17:22:43.786Z,8.30
2022-11-22T17:25:45.822Z,7.72
2022-11-22T17:28:48.966Z,9.48
2022-11-22T17:31:51.070Z,12.68
2022-11-22T17:34:53.445Z,10.15
2022-11-22T17:37:56.592Z,10.27
2022-11-22T17:41:00.485Z,10.27
2022-11-22T17:44:03.936Z,12.65
2022-11-22T17:47:06.038Z,8.90
2022-11-22T17:50:15.424Z,9.13
2022-11-22T17:53:18.330Z,9.50
2022-11-22T17:56:24.783Z,10.38
2022-11-22T17:59:26.986Z,7.82
2022-11-22T18:02:33.844Z,7.95
2022-11-22T18:05:36.549Z,11.90
2022-11-22T18:08:46.389Z,10.68
2022-11-22T18:11:49.986Z,7.90
2022-11-22T18:14:54.491Z,9.10
2022-11-22T18:17:56.604Z,9.00
2022-11-22T18:20:58.702Z,9.07
2022-11-22T18:24:02.002Z,8.70
2022-11-22T18:27:04.333Z,10.50
2022-11-22T18:30:07.016Z,10.02
2022-11-22T18:33:10.294Z,10.35
2022-11-22T18:36:54.079Z,7.35
2022-11-22T18:39:47.237Z,11.02
2022-11-22T18:42:52.675Z,11.15
2022-11-22T18:46:02.344Z,8.93
2022-11-22T18:49:04.337Z,10.90
2022-11-22T18:52:06.825Z,8.10
2022-11-22T18:55:09.437Z,7.80
2022-11-22T18:58:11.616Z,8.10
2022-11-22T19:01:21.055Z,11.88
2022-11-22T19:04:23.153Z,8.45
2022-11-22T19:07:25.349Z,11.23
2022-11-22T19:10:27.448Z,8.88
2022-11-22T19:13:31.387Z,10.20
2022-11-22T19:16:33.525Z,9.45
2022-11-22T19:19:35.659Z,7.43
2022-11-22T19:22:37.687Z,6.72
2022-11-22T19:25:40.808Z,10.63
2022-11-22T19:28:54.918Z,8.55
2022-11-22T19:31:56.939Z,8.85
2022-11-22T19:34:59.173Z,8.02
2022-11-22T19:38:01.201Z,10.55
2022-11-22T19:41:15.316Z,10.52
2022-11-22T19:44:17.348Z,8.07
2022-11-22T19:47:19.546Z,9.85
2022-11-22T19:50:21.653Z,10.02
2022-11-22T19:53:24.432Z,11.30
2022-11-22T19:56:30.362Z,8.35
2022-11-22T19:59:34.568Z,8.50
2022-11-22T20:05:38.978Z,8.23
2022-11-22T20:08:42.989Z,9.27
2022-11-22T20:11:45.619Z,9.25
2022-11-22T20:14:47.679Z,8.75
2022-11-22T20:17:49.668Z,7.85
2022-11-22T20:20:51.699Z,9.25
2022-11-22T20:23:55.266Z,12.95
2022-11-22T20:26:57.363Z,9.63
2022-11-22T20:30:02.861Z,7.90
2022-11-22T20:33:05.141Z,9.52
2022-11-22T20:36:13.092Z,9.27
2022-11-22T20:39:15.136Z,10.82
2022-11-22T20:42:34.495Z,8.77
2022-11-22T20:45:37.300Z,8.10
2022-11-22T20:48:41.102Z,10.48
2022-11-22T20:51:43.561Z,8.88
2022-11-22T20:54:45.542Z,8.07
2022-11-22T20:57:47.657Z,8.20
2022-11-22T21:00:49.874Z,9.27
2022-11-22T21:03:52.548Z,11.00
2022-11-22T21:06:54.630Z,9.45
2022-11-22T21:09:58.738Z,8.95
2022-11-22T21:13:00.772Z,9.05
2022-11-22T21:16:23.194Z,8.05
2022-11-22T21:19:26.333Z,10.38
2022-11-22T21:22:31.746Z,9.07
2022-11-22T21:25:34.152Z,8.88
2022-11-22T21:28:38.719Z,10.68
2022-11-22T21:31:41.112Z,8.65
2022-11-22T21:34:43.152Z,8.90
2022-11-22T21:37:45.171Z,8.05
2022-11-22T21:41:32.267Z,8.38
2022-11-22T21:44:30.045Z,8.85
2022-11-22T21:47:32.642Z,8.57
2022-11-22T21:50:34.832Z,7.78
2022-11-22T21:53:36.976Z,7.68
2022-11-22T21:56:39.081Z,7.90
2022-11-22T21:59:42.198Z,8.65
2022-11-22T22:02:44.820Z,7.35
2022-11-22T22:05:51.071Z,8.10
2022-11-22T22:08:53.119Z,8.27
2022-11-22T22:11:55.207Z,6.30
2022-11-22T22:14:57.846Z,9.30
2022-11-22T22:17:59.948Z,8.25
2022-11-22T22:21:08.139Z,8.95
2022-11-22T22:24:11.734Z,7.40
2022-11-22T22:27:13.865Z,7.07
2022-11-22T22:30:16.947Z,6.53
2022-11-22T22:33:19.644Z,8.37
2022-11-22T22:36:22.547Z,6.65
2022-11-22T22:39:24.577Z,14.48
2022-11-22T22:42:26.736Z,11.38
2022-11-22T22:45:28.691Z,7.88
2022-11-22T22:48:31.178Z,6.50
2022-11-22T22:51:34.125Z,6.82
2022-11-22T22:54:36.406Z,8.55
2022-11-22T22:57:38.468Z,7.82
2022-11-22T23:00:40.503Z,8.20
2022-11-22T23:03:42.636Z,7.53
2022-11-22T23:06:44.752Z,8.95
2022-11-22T23:09:46.950Z,10.23
2022-11-22T23:12:48.954Z,8.40
2022-11-22T23:15:58.277Z,9.13
2022-11-22T23:19:00.506Z,6.95
2022-11-22T23:22:02.934Z,7.18
2022-11-22T23:25:06.289Z,5.10
2022-11-22T23:28:08.361Z,8.50
2022-11-22T23:31:13.587Z,5.85
2022-11-22T23:34:16.870Z,7.88
2022-11-22T23:37:19.953Z,5.63
2022-11-22T23:40:22.632Z,7.03
2022-11-22T23:43:26.763Z,5.35
2022-11-22T23:46:57.917Z,6.38
2022-11-22T23:49:59.936Z,6.25
2022-11-22T23:53:01.965Z,7.07
2022-11-22T23:56:09.517Z,5.93
2022-11-22T23:59:11.643Z,4.88
